Latest Weather Observations for Normanton

IDQ60801

Issued at 10:05 am EST Friday 22 August 2014 (issued every 30 minutes, with the page automatically refreshed every 10 minutes)

About weather observations | Map of weather stations | Latest weather observations for QLD | Other Formats
Station Details ID: 029063 Name: NORMANTON AIRPORT Lat: -17.69 Lon: 141.07 Height: 18.42 m
Data from the previous 72 hours. | See also: Recent months at Normanton
Date/Time
EST
Temp
°C
App
Temp
°C
Dew
Point
Rel
Hum
%
Delta-T
°C
Wind Press
QNH
hPa
Press
MSL
hPa
Rain
since 9 am
mm
Dir
 
Spd
km/h
Gust
km/h
Spd
kts
Gust
kts
22/10:00am 23.6 18.5 0.7 22 10.5 SSE 17 24 9 13 1017.5 - 0.0
22/09:30am 22.1 16.3 0.0 23 9.9 SSE 20 26 11 14 1017.3 - 0.0
22/09:00am 20.9 14.7 -0.4 24 9.4 S 22 28 12 15 1017.4 1017.2 0.0
22/08:30am 19.5 12.7 -1.6 24 9.0 S 24 32 13 17 1017.1 - 0.0
22/08:00am 18.7 13.3 -1.7 25 8.6 S 17 20 9 11 1017.0 - 0.0
22/07:30am 17.9 13.3 -1.3 27 8.1 S 13 17 7 9 1016.5 - 0.0
22/07:00am 17.6 12.9 -1.6 27 8.0 SSE 13 20 7 11 1016.1 - 0.0
22/06:30am 18.0 11.9 -2.3 25 8.4 S 20 26 11 14 1015.6 - 0.0
22/06:00am 18.0 11.9 -2.3 25 8.4 S 20 26 11 14 1015.0 1014.9 0.0
22/05:30am 18.5 12.6 -1.9 25 8.6 S 19 28 10 15 1014.6 - 0.0
22/05:00am 18.9 12.4 -2.1 24 8.8 S 22 30 12 16 1014.4 - 0.0
22/04:30am 19.3 12.1 -1.7 24 8.9 S 26 35 14 19 1014.3 - 0.0
22/04:00am 19.7 13.3 -2.0 23 9.2 S 22 30 12 16 1014.5 - 0.0
22/03:30am 19.4 13.4 -1.7 24 9.0 S 20 24 11 13 1014.6 - 0.0
22/03:00am 19.9 13.1 -1.8 23 9.2 S 24 28 13 15 1014.8 1014.7 0.0
22/02:30am 20.2 14.4 -1.6 23 9.3 S 19 24 10 13 1015.0 - 0.0
22/02:00am 18.9 13.5 -1.0 26 8.5 SSW 17 22 9 12 1015.2 - 0.0
22/01:30am 18.5 14.0 -0.3 28 8.1 SSW 13 15 7 8 1015.2 - 0.0
22/01:00am 19.2 14.0 0.3 28 8.3 SSW 17 22 9 12 1015.3 - 0.0
22/12:30am 17.8 13.7 2.5 36 7.0 SSW 13 17 7 9 1015.5 - 0.0
22/12:00am 17.5 13.7 4.1 41 6.3 SW 13 15 7 8 1015.5 1015.4 0.0
 
Date/Time
EST
Temp
°C
App
Temp
°C
Dew
Point
Rel
Hum
%
Delta-T
°C
Wind Press
QNH
hPa
Press
MSL
hPa
Rain
since 9 am
mm
Dir
 
Spd
km/h
Gust
km/h
Spd
kts
Gust
kts
21/11:30pm 18.0 14.2 3.9 39 6.6 SW 13 15 7 8 1015.6 - 0.0
21/11:00pm 18.5 14.7 3.9 38 6.9 SW 13 15 7 8 1015.6 - 0.0
21/10:30pm 18.8 15.1 4.2 38 6.9 WSW 13 17 7 9 1015.6 - 0.0
21/10:00pm 18.9 14.9 3.1 35 7.4 WSW 13 17 7 9 1015.6 - 0.0
21/09:30pm 19.4 15.5 1.4 30 8.1 WSW 11 15 6 8 1015.5 - 0.0
21/09:00pm 20.0 16.1 1.4 29 8.4 WSW 11 15 6 8 1015.3 1015.3 0.0
21/08:30pm 21.2 17.3 1.0 26 9.2 W 11 15 6 8 1014.9 - 0.0
21/08:00pm 22.2 17.9 0.7 24 9.8 W 13 17 7 9 1014.6 - 0.0
21/07:30pm 23.2 18.9 0.9 23 10.3 W 13 17 7 9 1014.2 - 0.0
21/07:00pm 24.3 19.6 1.2 22 10.8 W 15 20 8 11 1013.8 - 0.0
21/06:30pm 25.6 20.2 1.0 20 11.6 NW 19 26 10 14 1013.3 - 0.0
21/06:00pm 28.4 24.6 -0.7 15 13.6 SW 9 15 5 8 1012.8 1012.8 0.0
21/05:30pm 28.9 26.4 -1.2 14 14.0 E 2 9 1 5 1012.5 - 0.0
21/05:00pm 28.8 24.2 -1.3 14 13.9 S 13 20 7 11 1012.3 - 0.0
21/04:30pm 29.5 26.3 -0.8 14 14.2 WNW 6 13 3 7 1012.2 - 0.0
21/04:00pm 29.2 24.7 -0.1 15 13.9 NW 13 17 7 9 1012.1 - 0.0
21/03:30pm 29.7 25.9 -0.6 14 14.3 WNW 9 17 5 9 1012.1 - 0.0
21/03:00pm 29.0 25.7 -0.2 15 13.8 NNW 7 13 4 7 1012.4 1012.2 0.0
21/02:30pm 28.5 24.7 -0.6 15 13.6 SSW 9 15 5 8 1012.8 - 0.0
21/02:00pm 28.4 24.4 0.2 16 13.4 ESE 11 20 6 11 1013.3 - 0.0
21/01:30pm 28.7 25.6 1.3 17 13.3 E 7 11 4 6 1013.9 - 0.0
21/01:00pm 28.0 24.0 0.7 17 13.0 S 11 17 6 9 1014.3 - 0.0
21/12:30pm 26.9 21.9 -1.0 16 12.8 SSE 15 24 8 13 1014.8 - 0.0
21/12:00pm 26.5 20.8 -0.5 17 12.4 SSE 19 26 10 14 1015.3 1015.2 0.0
21/11:30am 26.2 20.0 0.0 18 12.2 S 22 32 12 17 1016.0 - 0.0
21/11:00am 24.6 18.2 -2.0 17 11.8 S 22 32 12 17 1016.5 - 0.0
21/10:30am 23.5 17.0 -2.2 18 11.2 S 22 30 12 16 1017.1 - 0.0
21/10:00am 22.2 15.8 -1.8 20 10.4 SSE 22 30 12 16 1017.3 - 0.0
21/09:30am 20.3 14.2 -2.1 22 9.5 SSE 20 28 11 15 1017.2 - 0.0
21/09:00am 19.4 12.9 -2.2 23 9.1 S 22 32 12 17 1017.1 1017.0 0.0
21/08:30am 17.6 11.1 -2.6 25 8.3 S 22 28 12 15 1016.9 - 0.0
21/08:00am 16.1 10.1 -2.9 27 7.6 S 19 24 10 13 1016.7 - 0.0
21/07:30am 14.3 9.0 -3.5 29 6.9 SSW 15 19 8 10 1016.3 - 0.0
21/07:00am 13.7 8.8 -3.5 30 6.6 S 13 17 7 9 1015.9 - 0.0
21/06:30am 14.3 9.4 -3.5 29 6.9 S 13 17 7 9 1015.5 - 0.0
21/06:00am 14.6 9.7 -3.7 28 7.1 S 13 15 7 8 1015.2 1015.1 0.0
21/05:30am 15.1 10.2 -3.3 28 7.2 S 13 15 7 8 1014.7 - 0.0
21/05:00am 15.4 10.9 -3.5 27 7.4 S 11 13 6 7 1014.6 - 0.0
21/04:30am 16.5 11.6 -3.6 25 8.0 S 13 15 7 8 1014.5 - 0.0
21/04:00am 17.1 11.8 -3.6 24 8.3 S 15 19 8 10 1014.5 - 0.0
21/03:30am 17.7 12.4 -3.7 23 8.6 S 15 20 8 11 1014.7 - 0.0
21/03:00am 18.3 12.2 -3.8 22 8.9 S 19 22 10 12 1014.9 1014.8 0.0
21/02:30am 19.0 13.3 -3.8 21 9.2 S 17 22 9 12 1015.2 - 0.0
21/02:00am 19.5 13.3 -3.4 21 9.4 S 20 26 11 14 1015.3 - 0.0
21/01:30am 19.5 13.5 -3.4 21 9.4 S 19 26 10 14 1015.4 - 0.0
21/01:00am 19.0 13.4 -2.6 23 9.0 S 17 22 9 12 1015.5 - 0.0
21/12:30am 18.7 13.3 -1.7 25 8.6 S 17 20 9 11 1015.5 - 0.0
21/12:00am 17.7 13.2 -0.5 29 7.8 SSW 13 15 7 8 1015.4 1015.4 0.0
 
Date/Time
EST
Temp
°C
App
Temp
°C
Dew
Point
Rel
Hum
%
Delta-T
°C
Wind Press
QNH
hPa
Press
MSL
hPa
Rain
since 9 am
mm
Dir
 
Spd
km/h
Gust
km/h
Spd
kts
Gust
kts
20/11:30pm 17.7 14.0 -0.1 30 7.7 SSW 9 11 5 6 1015.5 - 0.0
20/11:00pm 16.9 13.9 2.1 37 6.6 SW 7 9 4 5 1015.5 - 0.0
20/10:30pm 18.0 15.0 2.3 35 7.1 SW 7 9 4 5 1015.4 - 0.0
20/10:00pm 18.2 15.2 2.1 34 7.3 SSW 7 9 4 5 1015.5 - 0.0
20/09:30pm 19.6 16.4 2.9 33 7.8 SW 9 11 5 6 1015.4 - 0.0
20/09:00pm 20.4 16.8 3.2 32 8.1 WSW 11 13 6 7 1015.1 1015.1 0.0
20/08:30pm 21.6 18.6 4.2 32 8.5 W 9 11 5 6 1014.9 - 0.0
20/08:00pm 22.5 19.6 4.5 31 8.9 W 9 13 5 7 1014.5 - 0.0
20/07:30pm 23.8 20.9 4.7 29 9.5 WNW 9 13 5 7 1014.0 - 0.0
20/07:00pm 24.7 21.6 5.5 29 9.8 WNW 11 13 6 7 1013.7 - 0.0
20/06:30pm 26.4 23.0 5.9 27 10.6 NW 13 17 7 9 1013.3 - 0.0
20/06:00pm 28.0 24.3 2.2 19 12.6 NW 11 15 6 8 1013.1 1013.0 0.0
20/05:30pm 28.5 24.9 2.7 19 12.8 N 11 17 6 9 1012.9 - 0.0
20/05:00pm 28.5 25.0 3.4 20 12.6 N 11 19 6 10 1012.8 - 0.0
20/04:30pm 28.6 26.0 4.2 21 12.4 NNE 7 20 4 11 1012.9 - 0.0
20/04:00pm 29.2 26.7 4.6 21 12.7 SW 7 17 4 9 1012.9 - 0.0
20/03:30pm 29.0 25.9 3.8 20 12.8 WNW 9 20 5 11 1013.0 - 0.0
20/03:00pm 28.8 25.7 3.6 20 12.7 NW 9 17 5 9 1013.4 1013.3 0.0
20/02:30pm 28.2 23.5 0.9 17 13.1 S 15 22 8 12 1013.7 - 0.0
20/02:00pm 28.3 24.4 0.9 17 13.1 SSW 11 20 6 11 1014.2 - 0.0
20/01:30pm 28.2 25.0 0.9 17 13.1 W 7 15 4 8 1014.5 - 0.0
20/01:00pm 27.8 23.9 1.3 18 12.7 W 11 19 6 10 1014.8 - 0.0
20/12:30pm 27.1 24.2 1.5 19 12.3 W 6 9 3 5 1015.2 - 0.0
20/12:00pm 25.9 22.7 0.5 19 11.9 WSW 7 13 4 7 1015.8 1015.7 0.0
20/11:30am 25.4 22.2 0.8 20 11.5 E 7 13 4 7 1016.4 - 0.0
20/11:00am 24.5 20.9 0.8 21 11.0 SSE 9 15 5 8 1016.4 - 0.0
20/10:30am 23.3 19.3 0.4 22 10.5 SSE 11 19 6 10 1016.6 - 0.0
20/10:00am 22.8 18.1 0.6 23 10.2 SE 15 20 8 11 1016.6 - 0.0
20/09:30am 21.4 15.8 0.0 24 9.6 S 19 26 10 14 1016.5 - 0.0
20/09:00am 20.0 14.1 -0.6 25 9.0 S 20 28 11 15 1016.5 1016.3 0.0
20/08:30am 18.6 12.0 -0.7 27 8.3 S 24 32 13 17 1016.2 - 0.0
20/08:00am 17.4 11.7 -0.8 29 7.7 S 19 24 10 13 1016.2 - 0.0
20/07:30am 16.9 11.5 -1.2 29 7.6 S 17 20 9 11 1016.0 - 0.0
20/07:00am 16.3 10.5 -1.3 30 7.3 S 19 26 10 14 1015.6 - 0.0
20/06:30am 17.1 10.3 -1.5 28 7.8 S 24 30 13 16 1015.3 - 0.0
20/06:00am 17.2 10.5 -1.4 28 7.8 S 24 32 13 17 1014.9 1014.7 0.0
20/05:30am 17.0 10.3 -1.1 29 7.6 S 24 32 13 17 1014.5 - 0.0
20/05:00am 17.1 10.4 -1.1 29 7.7 S 24 30 13 16 1014.4 - 0.0
20/04:30am 17.2 11.3 -1.0 29 7.7 S 20 26 11 14 1014.4 - 0.0
20/04:00am 17.4 10.7 -0.8 29 7.7 S 24 32 13 17 1014.4 - 0.0
20/03:30am 17.7 11.4 -1.0 28 7.9 S 22 28 12 15 1014.5 - 0.0
20/03:00am 17.8 11.5 -0.9 28 7.9 S 22 26 12 14 1014.7 1014.6 0.0
20/02:30am 18.3 11.6 -1.0 27 8.2 S 24 32 13 17 1014.8 - 0.0
20/02:00am 18.5 11.8 -0.8 27 8.3 S 24 30 13 16 1014.9 - 0.0
20/01:30am 19.0 12.7 -0.9 26 8.6 S 22 30 12 16 1015.2 - 0.0
20/01:00am 19.7 13.0 -0.9 25 8.9 S 24 32 13 17 1015.3 - 0.0
20/12:30am 19.6 13.3 -0.9 25 8.9 S 22 28 12 15 1015.4 - 0.0
20/12:00am 19.2 13.5 -0.7 26 8.6 S 19 22 10 12 1015.6 1015.5 0.0
 
Date/Time
EST
Temp
°C
App
Temp
°C
Dew
Point
Rel
Hum
%
Delta-T
°C
Wind Press
QNH
hPa
Press
MSL
hPa
Rain
since 9 am
mm
Dir
 
Spd
km/h
Gust
km/h
Spd
kts
Gust
kts
19/11:30pm 19.1 14.2 -0.8 26 8.6 S 15 19 8 10 1015.7 - 0.0
19/11:00pm 19.5 14.6 -0.5 26 8.7 S 15 19 8 10 1015.6 - 0.0
19/10:30pm 20.5 14.9 -0.2 25 9.1 S 19 22 10 12 1015.6 - 0.0
19/10:00pm 20.9 15.2 -0.4 24 9.4 S 19 24 10 13 1015.5 - 0.0
19/09:30pm 21.1 15.9 -0.2 24 9.5 SSW 17 19 9 10 1015.4 - 0.0
19/09:00pm 21.7 16.9 0.3 24 9.6 SSW 15 19 8 10 1015.3 1015.3 0.0
19/08:30pm 21.4 16.6 0.0 24 9.6 SSW 15 15 8 8 1014.9 - 0.0
19/08:00pm 21.7 17.3 0.3 24 9.6 SSW 13 13 7 7 1014.5 - 0.0
19/07:30pm 22.3 18.3 0.8 24 9.8 SSW 11 13 6 7 1014.2 - 0.0
19/07:00pm 23.5 19.9 0.6 22 10.5 SSW 9 11 5 6 1013.8 - 0.0
19/06:30pm 25.7 21.6 -0.4 18 12.0 S 11 13 6 7 1013.5 - 0.0
19/06:00pm 27.6 22.7 -0.5 16 13.1 S 15 19 8 10 1013.2 1013.2 0.0
19/05:30pm 28.4 24.6 -0.7 15 13.6 SSW 9 19 5 10 1013.2 - 0.0
19/05:00pm 28.8 24.9 -1.3 14 13.9 S 9 17 5 9 1013.2 - 0.0
19/04:30pm 29.0 24.5 -0.2 15 13.8 SSW 13 19 7 10 1013.2 - 0.0
19/04:00pm 28.8 25.0 -0.4 15 13.7 SW 9 19 5 10 1013.1 - 0.0
19/03:30pm 28.5 24.7 -0.6 15 13.6 NW 9 15 5 8 1013.3 - 0.0
19/03:00pm 28.2 23.2 -0.9 15 13.5 SW 15 24 8 13 1013.7 1013.6 0.0
19/02:30pm 28.4 25.3 0.2 16 13.4 SE 6 11 3 6 1014.1 - 0.0
19/02:00pm 27.5 23.2 1.1 18 12.6 SSE 13 19 7 10 1014.5 - 0.0
19/01:30pm 27.3 24.4 2.4 20 12.2 NNW 7 13 4 7 1014.9 - 0.0
19/01:00pm 26.8 21.9 2.0 20 12.0 S 17 26 9 14 1015.3 - 0.0
19/12:30pm 26.4 21.3 3.0 22 11.5 S 19 28 10 15 1015.8 - 0.0
19/12:00pm 26.5 22.5 3.1 22 11.5 SE 13 22 7 12 1016.4 1016.2 0.0
19/11:30am 25.4 21.1 3.4 24 10.8 SE 15 20 8 11 1016.9 - 0.0
19/11:00am 24.7 19.9 4.5 27 10.1 SE 19 26 10 14 1017.3 - 0.0
19/10:30am 23.3 17.4 3.8 28 9.5 SSE 24 32 13 17 1017.9 - 0.0

Other Formats:

Comma delimited format used in spreadsheet applications
http://www.bom.gov.au/fwo/IDQ60801/IDQ60801.94266.axf

JavaScript Object Notation format (JSON) in row-major order
http://www.bom.gov.au/fwo/IDQ60801/IDQ60801.94266.json